Time;durP1;ratioP1;P1;durP2;ratioP2;P2;SDS_P1;SDS_P2;PMS_P1;PMS_P2;Temp;Humidity;BMP_temperature;BMP_pressure;BME280_temperature;BME280_humidity;BME280_pressure;Samples;Min_cycle;Max_cycle;Signal;HPM_P1;HPM_P2
2020/12/28 00:02:21;;;;;;;122.80;41.70;;;;;;;-4.85;99.11;102225.45;1624628;87;21048;-81
2020/12/28 00:04:47;;;;;;;109.03;38.23;;;;;;;-4.74;99.51;102220.66;1624835;87;21196;-81
2020/12/28 00:07:15;;;;;;;105.17;38.60;;;;;;;-4.61;99.72;102227.13;1624603;87;21168;-81
2020/12/28 00:09:42;;;;;;;111.70;39.70;;;;;;;-4.52;99.58;102221.15;1625660;87;21350;-82
2020/12/28 00:12:08;;;;;;;102.58;37.55;;;;;;;-4.37;99.41;102224.36;1662640;84;21558;-81
2020/12/28 00:14:34;;;;;;;104.07;35.90;;;;;;;-4.31;99.05;102223.88;1705457;84;21196;-81
2020/12/28 00:17:00;;;;;;;104.85;38.25;;;;;;;-4.32;98.86;102227.47;1705369;84;21032;-81
2020/12/28 00:19:26;;;;;;;106.58;38.15;;;;;;;-4.32;99.18;102223.53;1705466;84;21709;-81
2020/12/28 00:21:52;;;;;;;109.50;37.60;;;;;;;-4.20;99.38;102223.03;1705156;84;27606;-81
2020/12/28 00:24:18;;;;;;;114.60;38.98;;;;;;;-4.12;99.01;102211.38;1705695;83;26835;-81
2020/12/28 00:26:46;;;;;;;109.07;39.70;;;;;;;-4.08;98.56;102204.92;1665103;86;21495;-81
2020/12/28 00:29:14;;;;;;;116.33;37.10;;;;;;;-4.15;98.52;102194.52;1665495;86;21216;-82
2020/12/28 00:31:42;;;;;;;115.72;38.10;;;;;;;-4.14;98.69;102191.78;1665513;86;21230;-81
2020/12/28 00:34:10;;;;;;;97.90;35.78;;;;;;;-4.03;98.95;102183.02;1665486;86;21542;-81
2020/12/28 00:36:36;;;;;;;98.97;36.25;;;;;;;-3.98;98.67;102183.45;1665266;86;21610;-81
2020/12/28 00:39:05;;;;;;;96.60;34.95;;;;;;;-4.05;98.49;102181.47;1665549;86;21180;-81
2020/12/28 00:41:31;;;;;;;102.78;36.03;;;;;;;-4.07;98.51;102178.12;1665644;86;21161;-81
2020/12/28 00:43:58;;;;;;;98.58;34.38;;;;;;;-3.96;98.31;102183.34;1665482;86;21216;-81
2020/12/28 00:46:23;;;;;;;97.22;35.28;;;;;;;-3.86;98.09;102172.41;1665493;86;21212;-81
2020/12/28 00:48:49;;;;;;;93.97;34.27;;;;;;;-3.91;97.83;102177.23;1665276;86;26838;-81
2020/12/28 00:51:15;;;;;;;100.25;34.95;;;;;;;-3.89;97.64;102179.23;1683277;84;20911;-81
2020/12/28 00:53:42;;;;;;;98.12;36.33;;;;;;;-3.79;97.61;102181.48;1705123;84;20961;-81
2020/12/28 00:56:08;;;;;;;104.78;36.17;;;;;;;-3.93;97.30;102175.20;1705510;84;21186;-81
2020/12/28 00:58:37;;;;;;;105.97;39.20;;;;;;;-3.88;97.31;102178.30;1705290;84;21058;-81
2020/12/28 01:01:05;;;;;;;114.00;40.52;;;;;;;-3.97;97.04;102177.25;1701862;83;21122;-81
2020/12/28 01:03:31;;;;;;;109.55;39.60;;;;;;;-3.93;97.15;102181.30;1697499;84;21110;-81
2020/12/28 01:05:57;;;;;;;111.92;39.33;;;;;;;-3.87;97.21;102178.64;1697509;84;21205;-81
2020/12/28 01:08:24;;;;;;;120.08;38.85;;;;;;;-3.88;97.38;102174.34;1697102;84;21177;-81
2020/12/28 01:10:50;;;;;;;118.53;38.63;;;;;;;-3.87;97.17;102178.64;1697334;83;21185;-81
2020/12/28 01:13:16;;;;;;;112.52;40.17;;;;;;;-3.75;97.27;102181.58;1697593;84;21146;-81
2020/12/28 01:15:44;;;;;;;119.40;41.18;;;;;;;-3.91;97.35;102179.38;1697447;84;21166;-81
2020/12/28 01:18:10;;;;;;;115.77;40.35;;;;;;;-3.90;97.36;102177.58;1697266;84;21141;-81
2020/12/28 01:20:40;;;;;;;114.52;41.68;;;;;;;-3.85;97.29;102179.81;1707622;83;21878;-81
2020/12/28 01:23:06;;;;;;;119.17;42.15;;;;;;;-3.87;97.22;102183.91;1697588;84;21587;-81
2020/12/28 01:25:32;;;;;;;123.33;40.98;;;;;;;-3.92;97.09;102176.86;1697527;83;21125;-81
2020/12/28 01:27:58;;;;;;;137.07;42.38;;;;;;;-3.93;97.38;102175.20;1697626;84;21133;-81
2020/12/28 01:30:24;;;;;;;126.65;43.25;;;;;;;-3.95;97.34;102177.94;1697563;84;21074;-81
2020/12/28 01:32:50;;;;;;;127.90;42.30;;;;;;;-4.06;97.36;102175.83;1697502;84;21173;-81
2020/12/28 01:35:16;;;;;;;123.80;42.13;;;;;;;-3.93;97.17;102174.71;1697586;84;24182;-81
2020/12/28 01:37:42;;;;;;;123.92;43.00;;;;;;;-3.96;97.07;102176.77;1697568;84;22962;-81
2020/12/28 01:40:08;;;;;;;125.60;42.85;;;;;;;-4.04;96.82;102176.06;1697667;84;21039;-81
2020/12/28 01:42:33;;;;;;;125.75;43.50;;;;;;;-4.00;96.91;102172.23;1697624;84;20979;-81
2020/12/28 01:44:59;;;;;;;119.62;41.35;;;;;;;-3.95;96.77;102168.73;1697513;84;21839;-81
2020/12/28 01:47:26;;;;;;;127.82;46.30;;;;;;;-4.06;96.85;102166.13;1697273;84;21051;-81
2020/12/28 01:49:53;;;;;;;134.10;47.95;;;;;;;-4.00;96.79;102166.11;1697486;83;21173;-81
2020/12/28 01:52:19;;;;;;;139.45;49.38;;;;;;;-4.19;96.78;102155.77;1697547;84;21201;-81
2020/12/28 01:54:45;;;;;;;132.03;46.23;;;;;;;-4.18;97.15;102160.55;1697398;84;21134;-81
2020/12/28 01:57:11;;;;;;;116.67;42.33;;;;;;;-4.18;96.87;102157.92;1697348;84;21177;-81
2020/12/28 01:59:38;;;;;;;120.50;41.90;;;;;;;-4.20;96.88;102167.27;1697429;83;21165;-81
2020/12/28 02:02:05;;;;;;;115.95;39.63;;;;;;;-4.27;96.87;102159.50;1697336;83;21172;-81
2020/12/28 02:04:31;;;;;;;119.05;40.05;;;;;;;-4.36;97.16;102154.98;1677625;84;21162;-81
2020/12/28 02:06:57;;;;;;;110.40;38.00;;;;;;;-4.21;97.46;102151.59;1697335;84;21114;-80
2020/12/28 02:09:23;;;;;;;108.20;38.30;;;;;;;-4.31;97.18;102150.67;1697585;84;21221;-81
2020/12/28 02:11:48;;;;;;;108.00;37.28;;;;;;;-4.30;97.04;102147.08;1697430;83;21637;-81
2020/12/28 02:14:15;;;;;;;109.97;38.88;;;;;;;-4.37;96.99;102142.80;1697603;84;24116;-81
2020/12/28 02:16:41;;;;;;;107.10;38.63;;;;;;;-4.32;97.04;102142.41;1697378;84;21185;-81
2020/12/28 02:19:07;;;;;;;105.92;38.00;;;;;;;-4.35;96.86;102138.25;1697650;83;20947;-81
2020/12/28 02:21:37;;;;;;;103.27;36.85;;;;;;;-4.38;96.92;102130.61;1697376;84;21275;-80
2020/12/28 02:24:04;;;;;;;100.42;35.55;;;;;;;-4.36;96.98;102136.56;1697465;84;21121;-81
2020/12/28 02:26:30;;;;;;;93.05;37.08;;;;;;;-4.43;96.93;102129.66;1697464;84;21599;-81
2020/12/28 02:28:55;;;;;;;104.05;37.75;;;;;;;-4.28;96.82;102125.43;1697501;84;20935;-81
2020/12/28 02:31:21;;;;;;;102.72;37.63;;;;;;;-4.39;96.54;102113.13;1697592;84;21050;-81
2020/12/28 02:33:47;;;;;;;96.87;37.67;;;;;;;-4.36;96.83;102103.19;1697626;84;21239;-81
2020/12/28 02:36:13;;;;;;;104.72;37.30;;;;;;;-4.42;96.72;102097.11;1697673;84;26919;-81
2020/12/28 02:38:39;;;;;;;103.00;36.58;;;;;;;-4.35;96.76;102096.16;1697819;84;20971;-81
2020/12/28 02:41:06;;;;;;;96.80;35.63;;;;;;;-4.27;96.74;102091.56;1697551;84;21062;-81
2020/12/28 02:43:32;;;;;;;95.95;35.65;;;;;;;-4.25;96.36;102090.48;1697629;84;21599;-81
2020/12/28 02:45:59;;;;;;;102.47;36.03;;;;;;;-4.10;95.99;102089.70;1697689;84;21922;-81
2020/12/28 02:48:25;;;;;;;95.05;34.92;;;;;;;-4.22;96.01;102087.59;1697620;84;21157;-81
2020/12/28 02:50:51;;;;;;;103.47;35.58;;;;;;;-4.14;95.57;102083.03;1697762;83;26652;-81
2020/12/28 02:53:18;;;;;;;106.22;35.38;;;;;;;-4.16;95.42;102076.56;1697694;84;21034;-81
2020/12/28 02:55:43;;;;;;;101.00;37.55;;;;;;;-4.13;95.30;102085.52;1697692;84;21059;-80
2020/12/28 02:58:10;;;;;;;100.25;35.60;;;;;;;-4.01;95.44;102081.03;1697694;83;21081;-80
2020/12/28 03:00:35;;;;;;;91.65;34.03;;;;;;;-4.06;95.10;102087.16;1697618;83;21197;-80
2020/12/28 03:03:02;;;;;;;94.87;34.45;;;;;;;-4.08;94.97;102081.20;1697536;84;20935;-81
2020/12/28 03:05:28;;;;;;;92.92;33.55;;;;;;;-4.03;94.79;102079.48;1697704;84;21066;-81
2020/12/28 03:07:54;;;;;;;97.30;35.03;;;;;;;-3.92;94.54;102087.34;1697180;83;21546;-81
2020/12/28 03:10:21;;;;;;;94.58;34.67;;;;;;;-3.87;94.59;102075.94;1697072;84;21176;-80
2020/12/28 03:12:47;;;;;;;93.90;36.13;;;;;;;-3.99;94.16;102067.27;1697027;83;21067;-81
2020/12/28 03:15:13;;;;;;;93.85;35.17;;;;;;;-3.90;94.42;102073.56;1697377;83;20971;-81
2020/12/28 03:17:39;;;;;;;96.00;35.35;;;;;;;-3.79;94.31;102070.87;1697648;84;21146;-81
2020/12/28 03:20:05;;;;;;;95.35;34.88;;;;;;;-3.79;94.39;102074.00;1677925;84;20924;-81
2020/12/28 03:22:30;;;;;;;93.07;33.88;;;;;;;-3.90;94.21;102075.72;1697635;83;21902;-81
2020/12/28 03:24:56;;;;;;;90.67;34.65;;;;;;;-3.85;94.00;102069.22;1698554;83;23433;-81
2020/12/28 03:27:22;;;;;;;91.92;32.85;;;;;;;-3.92;94.21;102067.59;1697469;83;26679;-81
2020/12/28 03:29:48;;;;;;;93.20;33.48;;;;;;;-4.05;93.68;102070.42;1697632;84;21030;-81
2020/12/28 03:32:14;;;;;;;99.17;35.78;;;;;;;-4.05;93.90;102077.00;1697616;84;21032;-81
2020/12/28 03:34:39;;;;;;;86.35;30.25;;;;;;;-3.93;93.89;102075.14;1697454;84;21245;-81
2020/12/28 03:37:05;;;;;;;86.02;30.45;;;;;;;-3.87;93.63;102070.67;1697531;84;27607;-81
2020/12/28 03:39:34;;;;;;;85.70;31.20;;;;;;;-3.92;93.41;102071.53;1697598;84;26648;-81
2020/12/28 03:42:00;;;;;;;90.72;31.25;;;;;;;-3.78;93.56;102063.80;1697459;83;21110;-81
2020/12/28 03:44:26;;;;;;;83.45;29.80;;;;;;;-3.83;93.43;102066.81;1697526;84;20971;-81
2020/12/28 03:46:51;;;;;;;82.85;30.80;;;;;;;-3.86;92.99;102064.44;1697428;84;21280;-81
2020/12/28 03:49:17;;;;;;;76.15;29.12;;;;;;;-3.85;92.70;102077.98;1645649;86;27658;-81
2020/12/28 03:51:43;;;;;;;79.07;30.97;;;;;;;-3.83;92.54;102077.83;1646194;86;26646;-81
2020/12/28 03:54:09;;;;;;;90.35;31.62;;;;;;;-3.63;93.43;102076.16;1646386;85;20934;-81
2020/12/28 03:56:35;;;;;;;85.07;30.20;;;;;;;-3.59;93.09;102084.97;1645776;86;21173;-81
2020/12/28 03:59:01;;;;;;;82.08;30.85;;;;;;;-3.58;93.04;102077.92;1645921;86;21950;-81
2020/12/28 04:01:26;;;;;;;77.37;28.12;;;;;;;-3.65;92.85;102072.32;1645617;86;20976;-81
2020/12/28 04:03:53;;;;;;;81.45;27.37;;;;;;;-3.77;92.35;102074.19;1645726;86;26670;-81
2020/12/28 04:06:20;;;;;;;73.60;27.62;;;;;;;-3.79;92.00;102059.51;1623856;86;21085;-81
2020/12/28 04:08:46;;;;;;;80.05;27.87;;;;;;;-3.85;91.96;102055.59;1645810;86;21200;-81
2020/12/28 04:11:12;;;;;;;83.12;27.60;;;;;;;-3.92;92.01;102063.64;1645516;86;21698;-81
2020/12/28 04:13:38;;;;;;;80.00;27.85;;;;;;;-3.95;92.03;102052.05;1645778;86;25914;-81
2020/12/28 04:16:04;;;;;;;79.60;28.20;;;;;;;-3.84;91.88;102053.30;1645585;86;23927;-81
2020/12/28 04:18:29;;;;;;;80.25;26.42;;;;;;;-3.80;92.11;102063.09;1645317;86;21003;-81
2020/12/28 04:20:55;;;;;;;84.77;28.02;;;;;;;-3.67;92.03;102069.83;1683187;84;21073;-81
2020/12/28 04:23:21;;;;;;;82.80;29.60;;;;;;;-3.74;91.60;102077.05;1697592;83;21190;-81
2020/12/28 04:25:47;;;;;;;83.33;29.45;;;;;;;-3.66;91.95;102073.30;1697291;84;21009;-81
2020/12/28 04:28:13;;;;;;;85.77;28.65;;;;;;;-3.64;91.60;102075.33;1697210;83;27564;-81
2020/12/28 04:30:38;;;;;;;85.12;28.02;;;;;;;-3.70;91.17;102070.58;1697552;83;20935;-81
2020/12/28 04:33:04;;;;;;;81.63;27.90;;;;;;;-3.66;91.38;102076.77;1696996;84;20971;-81
2020/12/28 04:35:30;;;;;;;85.10;29.10;;;;;;;-3.62;91.64;102073.38;1697544;83;21929;-81
2020/12/28 04:37:56;;;;;;;82.27;28.20;;;;;;;-3.59;91.69;102081.02;1697406;83;27188;-81
2020/12/28 04:40:22;;;;;;;84.60;28.87;;;;;;;-3.79;91.09;102080.09;1697373;83;20979;-81
2020/12/28 04:42:48;;;;;;;76.40;28.45;;;;;;;-3.81;91.24;102083.33;1697360;83;21170;-81
2020/12/28 04:45:14;;;;;;;79.77;27.93;;;;;;;-3.60;91.32;102083.31;1697055;83;21034;-81
2020/12/28 04:47:39;;;;;;;80.67;27.22;;;;;;;-3.55;91.23;102082.94;1697572;83;21195;-81
2020/12/28 04:50:06;;;;;;;73.22;25.85;;;;;;;-3.48;91.15;102075.67;1697441;84;20947;-81
2020/12/28 04:52:34;;;;;;;70.20;24.12;;;;;;;-3.47;91.33;102081.77;1697110;83;21161;-81
2020/12/28 04:55:02;;;;;;;68.12;24.65;;;;;;;-3.59;90.49;102078.38;1697273;84;21210;-81
2020/12/28 04:57:28;;;;;;;71.75;23.15;;;;;;;-3.39;91.31;102078.50;1697502;83;21065;-81
2020/12/28 04:59:56;;;;;;;59.80;21.33;;;;;;;-3.40;91.25;102085.58;1697134;83;22016;-81
2020/12/28 05:02:23;;;;;;;62.10;21.40;;;;;;;-3.43;90.65;102084.52;1696958;83;21184;-81
2020/12/28 05:04:49;;;;;;;63.98;21.97;;;;;;;-3.47;90.32;102087.91;1697415;84;21193;-81
2020/12/28 05:07:16;;;;;;;62.45;21.15;;;;;;;-3.45;90.38;102084.63;1697596;83;21114;-81
2020/12/28 05:09:41;;;;;;;62.05;20.15;;;;;;;-3.43;89.92;102080.08;1697011;83;21240;-81
2020/12/28 05:12:08;;;;;;;53.80;19.95;;;;;;;-3.32;90.05;102081.80;1693879;84;21173;-81
2020/12/28 05:14:35;;;;;;;55.10;20.05;;;;;;;-3.23;90.08;102075.73;1697184;84;21194;-81
2020/12/28 05:17:06;;;;;;;57.75;20.17;;;;;;;-3.14;90.04;102073.28;1697517;83;21106;-81
2020/12/28 05:19:35;;;;;;;59.20;19.02;;;;;;;-3.03;90.32;102076.65;1697400;84;21193;-81
2020/12/28 05:22:02;;;;;;;51.25;18.60;;;;;;;-3.10;90.02;102073.34;1617605;87;21142;-81
2020/12/28 05:24:28;;;;;;;68.28;20.08;;;;;;;-3.15;89.65;102076.37;1617222;88;21169;-81
2020/12/28 05:26:57;;;;;;;58.55;19.05;;;;;;;-3.22;88.90;102070.80;1617194;88;26965;-81
2020/12/28 05:29:26;;;;;;;56.95;20.43;;;;;;;-3.03;88.89;102081.92;1617496;87;21189;-81
2020/12/28 05:31:53;;;;;;;59.05;18.27;;;;;;;-2.99;89.75;102078.52;1617294;87;21156;-81
2020/12/28 05:34:26;;;;;;;51.48;18.02;;;;;;;-3.18;88.65;102072.68;1617242;88;21121;-81
2020/12/28 05:36:58;;;;;;;57.27;18.92;;;;;;;-3.23;88.55;102069.63;1614869;87;21923;-81
2020/12/28 05:39:28;;;;;;;57.40;18.67;;;;;;;-3.25;88.51;102084.25;1617411;88;21161;-81
2020/12/28 05:42:10;;;;;;;53.48;18.95;;;;;;;-2.97;88.90;102077.42;1595476;88;21532;-81
2020/12/28 05:44:43;;;;;;;55.78;17.37;;;;;;;-3.04;88.74;102067.53;1617643;88;21168;-81
2020/12/28 05:47:16;;;;;;;48.58;16.25;;;;;;;-2.93;87.91;102064.80;1617464;87;21271;-81
2020/12/28 05:49:47;;;;;;;52.80;19.45;;;;;;;-2.97;87.85;102062.92;1617499;87;21132;-81
2020/12/28 05:52:16;;;;;;;52.25;18.15;;;;;;;-2.96;87.82;102066.39;1617427;87;21177;-81
2020/12/28 05:54:42;;;;;;;54.80;17.23;;;;;;;-2.82;87.59;102067.82;1617202;88;21210;-81
2020/12/28 05:57:09;;;;;;;49.93;16.20;;;;;;;-2.85;86.89;102061.01;1617491;87;21164;-81
2020/12/28 05:59:37;;;;;;;58.95;15.98;;;;;;;-2.75;87.29;102067.61;1617285;88;21228;-81
2020/12/28 06:02:09;;;;;;;47.15;15.80;;;;;;;-2.74;86.40;102061.36;1620816;87;21276;-81
2020/12/28 06:04:38;;;;;;;45.67;14.50;;;;;;;-2.79;86.48;102063.59;1611785;87;21305;-81
2020/12/28 06:07:05;;;;;;;48.25;14.70;;;;;;;-2.65;86.37;102068.94;1612317;87;21172;-81
2020/12/28 06:09:31;;;;;;;53.80;15.23;;;;;;;-2.78;85.72;102064.76;1633810;87;21182;-81
2020/12/28 06:12:06;;;;;;;46.53;15.28;;;;;;;-2.53;86.07;102071.80;1630488;87;21665;-81
2020/12/28 06:14:39;;;;;;;55.90;15.95;;;;;;;-2.59;85.81;102077.63;1633727;87;21236;-82
2020/12/28 06:17:06;;;;;;;;;;;;;;;-2.66;85.48;102076.03;1633443;87;21649;-82
2020/12/28 06:19:32;;;;;;;48.92;15.68;;;;;;;-2.60;85.63;102074.66;1632078;85;20283;-81
2020/12/28 06:21:59;;;;;;;45.03;15.25;;;;;;;-2.65;85.17;102072.41;1630109;85;21312;-81
2020/12/28 06:24:31;;;;;;;48.23;15.13;;;;;;;-2.65;85.63;102064.49;1629861;87;21280;-82
2020/12/28 06:27:07;;;;;;;36.75;12.43;;;;;;;-2.52;85.38;102055.84;1633403;86;21299;-81
2020/12/28 06:29:34;;;;;;;43.20;14.45;;;;;;;-2.64;85.47;102055.62;1609030;87;21681;-81
2020/12/28 06:32:15;;;;;;;45.45;14.55;;;;;;;-2.67;83.81;102055.91;1609135;89;21696;-81
2020/12/28 06:34:43;;;;;;;48.45;16.27;;;;;;;-2.30;84.84;102054.72;1609232;87;21183;-81
2020/12/28 06:37:10;;;;;;;44.65;14.55;;;;;;;-2.45;84.34;102049.52;1609192;89;21202;-81
2020/12/28 06:39:37;;;;;;;41.88;12.93;;;;;;;-2.44;83.87;102045.92;1609185;89;21235;-81
2020/12/28 06:42:15;;;;;;;41.68;13.62;;;;;;;-2.50;83.89;102066.25;1609145;89;21459;-82
2020/12/28 06:44:42;;;;;;;46.98;12.95;;;;;;;-2.35;83.15;102055.66;1609114;89;21736;-81
2020/12/28 06:47:21;;;;;;;39.48;12.58;;;;;;;-2.25;83.81;102062.73;1609221;89;21230;-81
2020/12/28 06:49:49;;;;;;;38.35;13.28;;;;;;;-2.31;83.01;102046.96;1606843;89;21656;-81
2020/12/28 06:52:16;;;;;;;37.40;12.25;;;;;;;-2.17;83.13;102045.72;1608775;89;21886;-81
2020/12/28 06:54:43;;;;;;;41.77;12.65;;;;;;;-2.11;82.58;102050.43;1609049;89;21216;-81
2020/12/28 06:57:10;;;;;;;38.08;11.65;;;;;;;-1.93;82.36;102055.33;1609239;89;21163;-81
2020/12/28 06:59:38;;;;;;;43.55;11.45;;;;;;;-2.09;82.22;102046.68;1609180;89;21253;-81
2020/12/28 07:02:06;;;;;;;36.13;11.83;;;;;;;-2.07;81.94;102063.69;1608370;88;21266;-81
2020/12/28 07:04:38;;;;;;;41.37;12.70;;;;;;;-1.97;81.27;102039.44;1596017;88;21166;-81
2020/12/28 07:07:06;;;;;;;44.05;12.98;;;;;;;-2.07;82.71;102034.64;1590936;88;21178;-81
2020/12/28 07:09:34;;;;;;;33.48;10.85;;;;;;;-2.06;81.97;102031.88;1591108;89;21224;-81
2020/12/28 07:12:13;;;;;;;41.83;12.43;;;;;;;-1.87;81.59;102030.16;1591389;89;21242;-81
2020/12/28 07:14:40;;;;;;;36.35;11.08;;;;;;;-1.93;81.82;102026.28;1603350;89;21159;-81
2020/12/28 07:17:06;;;;;;;39.90;11.90;;;;;;;-2.04;81.63;102033.53;1602197;89;21201;-81
2020/12/28 07:19:33;;;;;;;44.53;11.68;;;;;;;-1.97;82.00;102019.63;1576936;89;21372;-81
2020/12/28 07:21:59;;;;;;;32.93;10.72;;;;;;;-1.96;81.49;102016.48;1597854;89;21190;-81
2020/12/28 07:24:27;;;;;;;41.75;13.45;;;;;;;-1.89;81.39;102013.11;1597889;88;21616;-81
2020/12/28 07:26:54;;;;;;;44.35;12.60;;;;;;;-1.62;82.69;102025.58;1673396;84;21118;-82
2020/12/28 07:29:21;;;;;;;36.17;10.85;;;;;;;-1.61;81.29;102026.41;1702389;84;21222;-81
2020/12/28 07:31:47;;;;;;;42.10;11.43;;;;;;;-1.50;80.82;102025.38;1701950;84;21607;-81
2020/12/28 07:34:19;;;;;;;36.93;11.85;;;;;;;-1.66;80.23;102023.36;1702043;84;21141;-81
2020/12/28 07:36:50;;;;;;;35.50;10.72;;;;;;;-1.38;80.10;102026.88;1701976;84;21063;-81
2020/12/28 07:39:18;;;;;;;32.03;9.23;;;;;;;-1.04;80.57;102024.47;1702520;84;21153;-81
2020/12/28 07:41:45;;;;;;;41.10;9.93;;;;;;;-1.11;79.90;102023.90;1682853;84;22064;-82
2020/12/28 07:44:15;;;;;;;32.83;10.98;;;;;;;-1.14;79.54;102021.06;1702485;84;21192;-82
2020/12/28 07:47:02;;;;;;;35.88;9.50;;;;;;;-1.09;79.70;102000.27;1703172;83;21160;-82
2020/12/28 07:49:31;;;;;;;28.92;9.00;;;;;;;-1.06;79.95;102009.25;1632141;86;21269;-81
2020/12/28 07:52:26;;;;;;;27.52;8.20;;;;;;;-0.89;79.13;102008.92;1632038;86;21216;-81
2020/12/28 07:55:15;;;;;;;25.43;8.65;;;;;;;-0.90;77.20;102018.34;1630501;86;21247;-82
2020/12/28 07:58:22;;;;;;;20.00;6.50;;;;;;;-0.81;79.15;102020.09;1629616;86;21702;-81
2020/12/28 08:00:54;;;;;;;23.57;7.00;;;;;;;-0.90;77.77;102017.02;1609352;88;21647;-81
2020/12/28 08:03:37;;;;;;;31.57;7.60;;;;;;;-0.85;77.19;102012.95;1609358;88;21154;-82
2020/12/28 08:06:09;;;;;;;26.45;6.95;;;;;;;-0.73;77.52;102009.59;1609413;88;21312;-81
2020/12/28 08:08:35;;;;;;;23.90;6.60;;;;;;;-0.71;76.31;102021.70;1609187;88;21328;-81
2020/12/28 08:11:04;;;;;;;24.45;7.55;;;;;;;-0.85;76.63;101993.56;1608975;88;21219;-81
2020/12/28 08:13:36;;;;;;;25.80;6.55;;;;;;;-0.55;77.14;101997.19;1609411;88;21233;-81
2020/12/28 08:16:14;;;;;;;25.03;7.60;;;;;;;-0.72;76.35;101997.52;1609647;88;21119;-82
2020/12/28 08:18:51;;;;;;;27.58;8.05;;;;;;;-0.74;77.03;101985.41;1609234;88;21190;-81
2020/12/28 08:21:18;;;;;;;35.58;8.80;;;;;;;-0.57;76.87;101987.73;1564939;90;21319;-80
2020/12/28 08:23:56;;;;;;;29.45;7.00;;;;;;;-0.94;76.67;101978.95;1585534;90;21529;-80
2020/12/28 08:26:25;;;;;;;23.57;7.78;;;;;;;-0.83;75.97;101975.23;1585587;90;21463;-80
2020/12/28 08:28:54;;;;;;;45.25;7.15;;;;;;;-0.89;77.04;101969.23;1585772;90;21219;-81
2020/12/28 08:31:34;;;;;;;26.10;6.58;;;;;;;-0.81;76.44;101959.22;1585601;90;21616;-81
2020/12/28 08:34:08;;;;;;;23.30;6.70;;;;;;;-0.61;76.32;101961.23;1585902;90;21279;-82
2020/12/28 08:36:39;;;;;;;26.50;7.12;;;;;;;-0.97;76.50;101951.48;1585531;90;21772;-81
2020/12/28 08:39:18;;;;;;;20.92;7.67;;;;;;;-0.47;76.43;101943.48;1585324;90;21165;-82
2020/12/28 08:41:57;;;;;;;25.57;7.30;;;;;;;-0.60;76.23;101937.23;1583660;90;21239;-82
2020/12/28 08:44:28;;;;;;;27.45;7.67;;;;;;;-0.57;76.42;101932.95;1583804;90;21025;-81
2020/12/28 08:46:56;;;;;;;29.72;7.47;;;;;;;-0.55;75.51;101938.11;1583753;90;21259;-82
2020/12/28 08:49:30;;;;;;;24.25;6.50;;;;;;;-0.53;76.33;101935.66;1583937;90;21243;-82
2020/12/28 08:52:13;;;;;;;29.25;9.03;;;;;;;-0.43;75.64;101930.26;1586062;87;21212;-82
2020/12/28 08:54:39;;;;;;;30.43;8.37;;;;;;;-0.24;76.54;101931.41;1611756;89;21232;-81
2020/12/28 08:57:06;;;;;;;19.75;6.47;;;;;;;-0.02;76.56;101929.20;1611822;88;21152;-82
2020/12/28 08:59:32;;;;;;;27.67;8.88;;;;;;;-0.39;75.25;101934.75;1652896;86;21261;-82
2020/12/28 09:01:58;;;;;;;23.20;7.20;;;;;;;0.08;76.40;101925.11;1636774;86;21219;-82
2020/12/28 09:04:25;;;;;;;31.17;8.33;;;;;;;0.13;75.70;101919.67;1658988;85;21128;-81
2020/12/28 09:06:52;;;;;;;30.50;9.00;;;;;;;-0.18;74.82;101911.37;1636976;86;21125;-80
2020/12/28 09:09:19;;;;;;;26.30;8.18;;;;;;;-0.14;75.10;101911.92;1659312;85;21534;-81
2020/12/28 09:11:46;;;;;;;30.35;8.33;;;;;;;-0.08;75.37;101919.23;1659897;85;21189;-81
2020/12/28 09:14:12;;;;;;;31.15;8.10;;;;;;;0.02;75.69;101895.27;1658781;86;21156;-81
2020/12/28 09:16:38;;;;;;;25.15;8.25;;;;;;;0.01;75.28;101894.94;1659553;85;21177;-81
2020/12/28 09:19:05;;;;;;;26.82;6.78;;;;;;;0.03;74.65;101898.24;1659507;85;21613;-81
2020/12/28 09:21:32;;;;;;;31.87;8.88;;;;;;;-0.23;75.13;101895.14;1659520;85;21184;-81
2020/12/28 09:23:58;;;;;;;27.00;8.80;;;;;;;-0.04;74.78;101885.62;1658818;85;21220;-81
2020/12/28 09:26:23;;;;;;;27.37;6.78;;;;;;;0.21;74.33;101868.03;1658202;86;21657;-81
2020/12/28 09:28:49;;;;;;;32.48;10.30;;;;;;;0.13;73.78;101860.04;1658892;86;20978;-81
2020/12/28 09:31:16;;;;;;;38.25;9.30;;;;;;;0.48;73.55;101870.10;1659589;85;20998;-82
2020/12/28 09:33:42;;;;;;;33.20;7.90;;;;;;;0.33;74.48;101852.66;1658620;86;21148;-81
2020/12/28 09:36:08;;;;;;;42.93;10.38;;;;;;;0.80;72.53;101854.75;1659467;85;21590;-81
2020/12/28 09:38:34;;;;;;;31.85;7.25;;;;;;;0.90;72.58;101839.48;1658829;86;20950;-81
2020/12/28 09:41:00;;;;;;;32.30;10.43;;;;;;;0.51;72.41;101827.84;1660179;85;21057;-81
2020/12/28 09:43:26;;;;;;;29.82;9.58;;;;;;;0.96;73.30;101827.88;1659426;85;21129;-82
2020/12/28 09:45:52;;;;;;;36.40;9.80;;;;;;;1.08;72.96;101844.63;1652334;84;20986;-82
2020/12/28 09:48:18;;;;;;;29.72;9.43;;;;;;;1.05;72.61;101824.23;1676290;83;21093;-83
2020/12/28 09:50:44;;;;;;;24.85;8.15;;;;;;;1.26;72.82;101816.56;1687339;84;21192;-84
2020/12/28 09:53:10;;;;;;;25.50;8.90;;;;;;;1.13;72.25;101812.28;1686865;83;21152;-83
2020/12/28 09:55:36;;;;;;;29.30;10.23;;;;;;;1.23;70.79;101798.32;1686830;85;21358;-83
2020/12/28 09:58:02;;;;;;;32.17;10.25;;;;;;;1.01;72.16;101802.50;1687545;83;21215;-83
2020/12/28 10:00:28;;;;;;;30.30;8.90;;;;;;;1.27;73.33;101795.67;1687215;83;21659;-83
2020/12/28 10:02:53;;;;;;;24.52;8.85;;;;;;;1.24;71.78;101794.69;1681553;83;21129;-83
2020/12/28 10:05:21;;;;;;;31.65;8.18;;;;;;;1.26;72.48;101792.67;1680737;82;21055;-83
2020/12/28 10:07:47;;;;;;;28.32;9.40;;;;;;;1.38;71.52;101799.78;1681407;83;21182;-82
2020/12/28 10:10:13;;;;;;;26.50;7.45;;;;;;;1.35;72.84;101802.78;1695131;84;21060;-83
2020/12/28 10:12:39;;;;;;;24.75;8.18;;;;;;;1.14;71.46;101786.88;1683447;84;21958;-83
2020/12/28 10:15:09;;;;;;;33.00;8.68;;;;;;;1.65;71.05;101789.28;1662212;84;20996;-83
2020/12/28 10:17:36;;;;;;;31.05;8.88;;;;;;;1.44;70.82;101787.19;1695132;84;21611;-82
2020/12/28 10:20:05;;;;;;;36.23;9.98;;;;;;;1.75;71.09;101783.25;1695146;84;21253;-83
2020/12/28 10:22:33;;;;;;;31.75;10.55;;;;;;;1.47;70.64;101781.53;1694686;83;21131;-83
2020/12/28 10:24:59;;;;;;;31.33;9.83;;;;;;;1.64;73.00;101774.31;1695336;83;22396;-83
2020/12/28 10:27:25;;;;;;;31.62;7.85;;;;;;;1.49;71.49;101771.55;1695335;84;21030;-82
2020/12/28 10:29:51;;;;;;;26.85;8.48;;;;;;;1.21;71.42;101768.98;1695890;83;21241;-83
2020/12/28 10:32:17;;;;;;;27.80;8.10;;;;;;;1.17;72.68;101771.63;1695497;83;21047;-82
2020/12/28 10:34:43;;;;;;;25.62;8.65;;;;;;;1.21;73.18;101768.48;1685582;83;20987;-83
2020/12/28 10:37:11;;;;;;;28.98;9.30;;;;;;;1.44;72.56;101769.07;1675956;84;21310;-83
2020/12/28 10:39:36;;;;;;;31.50;9.13;;;;;;;1.33;73.41;101764.46;1595695;87;21111;-83
2020/12/28 10:42:04;;;;;;;26.90;7.30;;;;;;;1.69;72.31;101769.83;1572125;88;21708;-82
2020/12/28 10:44:30;;;;;;;28.17;8.68;;;;;;;1.28;72.36;101769.45;1610626;88;21241;-83
2020/12/28 10:46:56;;;;;;;24.63;7.90;;;;;;;1.55;72.83;101768.20;1590114;90;21646;-83
2020/12/28 10:49:22;;;;;;;28.70;7.55;;;;;;;1.69;72.58;101781.78;1590400;90;21152;-82
2020/12/28 10:51:48;;;;;;;27.17;7.47;;;;;;;1.51;71.89;101769.55;1590238;88;21287;-82
2020/12/28 10:54:14;;;;;;;25.08;8.25;;;;;;;1.69;72.52;101757.37;1593679;88;21274;-83
2020/12/28 10:56:40;;;;;;;32.20;7.15;;;;;;;1.53;72.72;101755.61;1593689;88;20998;-83
2020/12/28 10:59:06;;;;;;;32.00;8.85;;;;;;;1.45;71.57;101755.63;1595933;87;21082;-82
2020/12/28 11:01:33;;;;;;;25.02;7.45;;;;;;;1.50;71.88;101755.95;1617255;88;21215;-82
2020/12/28 11:03:59;;;;;;;25.02;6.55;;;;;;;1.84;72.75;101751.33;1618513;87;21117;-82
2020/12/28 11:06:25;;;;;;;24.20;7.17;;;;;;;1.71;71.39;101749.23;1618834;88;20946;-82
2020/12/28 11:08:51;;;;;;;18.57;5.33;;;;;;;1.69;72.00;101734.78;1598481;88;21219;-82
2020/12/28 11:11:18;;;;;;;22.93;6.33;;;;;;;1.56;71.37;101743.82;1601536;88;21380;-82
2020/12/28 11:13:45;;;;;;;25.43;5.40;;;;;;;1.72;72.58;101738.42;1611563;87;21173;-82
2020/12/28 11:16:11;;;;;;;26.57;7.42;;;;;;;1.73;71.58;101727.28;1609608;84;21268;-82